KMLB/MLB METAR and TAF weather

Enter ICAO airport designator
Station Type Date Time Source
KMLB METAR 2021/08/04 18:00 UTC NOAA

KMLB 041800Z 21010KT 10SM BKN013 BKN023 27/24 A3003 RMK AO2 T02670239


Station Type Date Time Source
KMLB Decoded METAR 2021/08/04 18:00 UTC NOAA

MELBOURNE INTERNATIONAL, FL, United States (KMLB) 28-06N 080-39W 10M
Aug 04, 2021 - 02:00 PM EDT / 2021.08.04 1800 UTC
Wind: from the SSW (210 degrees) at 12 MPH (10 KT):0
Visibility: 10 mile(s):0
Sky conditions: mostly cloudy
Temperature: 80.1 F (26.7 C)
Dew Point: 75.0 F (23.9 C)
Relative Humidity: 84%
Pressure (altimeter): 30.03 in. Hg (1016 hPa)
ob: KMLB 041800Z 21010KT 10SM BKN013 BKN023 27/24 A3003 RMK AO2 T02670239
cycle: 18

Station Type Date Time Source
KMLB TAF 2021/08/04 18:45 UTC NOAA

TAF KMLB 041741Z 0418/0518 22012KT P6SM VCSH SCT050 BKN060 BKN250
FM042000 23010KT P6SM VCTS SCT045CB BKN080 BKN250
FM050000 21008KT P6SM VCSH SCT050 BKN080 BKN250
FM050300 20005KT P6SM FEW020 SCT120 BKN250
FM051500 19008KT P6SM SCT035 SCT100 BKN250

Example: see airport list